sensor_id;sensor_type;location;lat;lon;timestamp;pressure;altitude;pressure_sealevel;temperature
15360;BMP280;7779;49.596;11.070;2022-09-01T00:01:46;98602.91;;;20.48
15360;BMP280;7779;49.596;11.070;2022-09-01T00:04:17;98593.59;;;20.48
15360;BMP280;7779;49.596;11.070;2022-09-01T00:06:43;98591.88;;;20.49
15360;BMP280;7779;49.596;11.070;2022-09-01T00:09:14;98593.59;;;20.48
15360;BMP280;7779;49.596;11.070;2022-09-01T00:11:45;98595.31;;;20.51
15360;BMP280;7779;49.596;11.070;2022-09-01T00:14:12;98592.78;;;20.51
15360;BMP280;7779;49.596;11.070;2022-09-01T00:16:38;98593.69;;;20.53
15360;BMP280;7779;49.596;11.070;2022-09-01T00:19:04;98588.56;;;20.51
15360;BMP280;7779;49.596;11.070;2022-09-01T00:21:38;98592.84;;;20.54
15360;BMP280;7779;49.596;11.070;2022-09-01T00:24:06;98585.13;;;20.49
15360;BMP280;7779;49.596;11.070;2022-09-01T00:26:32;98591.00;;;20.47
15360;BMP280;7779;49.596;11.070;2022-09-01T00:28:58;98582.47;;;20.45
15360;BMP280;7779;49.596;11.070;2022-09-01T00:31:25;98584.06;;;20.40
15360;BMP280;7779;49.596;11.070;2022-09-01T00:33:52;98577.19;;;20.36
15360;BMP280;7779;49.596;11.070;2022-09-01T00:36:19;98573.75;;;20.34
15360;BMP280;7779;49.596;11.070;2022-09-01T00:38:47;98578.84;;;20.34
15360;BMP280;7779;49.596;11.070;2022-09-01T00:41:14;98576.28;;;20.34
15360;BMP280;7779;49.596;11.070;2022-09-01T00:43:43;98578.84;;;20.34
15360;BMP280;7779;49.596;11.070;2022-09-01T00:46:32;98578.00;;;20.34
15360;BMP280;7779;49.596;11.070;2022-09-01T00:49:11;98579.66;;;20.32
15360;BMP280;7779;49.596;11.070;2022-09-01T00:51:42;98588.06;;;20.29
15360;BMP280;7779;49.596;11.070;2022-09-01T00:54:21;98592.25;;;20.27
15360;BMP280;7779;49.596;11.070;2022-09-01T00:56:48;98582.78;;;20.22
15360;BMP280;7779;49.596;11.070;2022-09-01T00:59:16;98587.84;;;20.20
15360;BMP280;7779;49.596;11.070;2022-09-01T01:01:43;98579.28;;;20.17
15360;BMP280;7779;49.596;11.070;2022-09-01T01:04:09;98573.28;;;20.13
15360;BMP280;7779;49.596;11.070;2022-09-01T01:06:45;98576.56;;;20.09
15360;BMP280;7779;49.596;11.070;2022-09-01T01:09:19;98575.63;;;20.04
15360;BMP280;7779;49.596;11.070;2022-09-01T01:11:47;98575.50;;;20.00
15360;BMP280;7779;49.596;11.070;2022-09-01T01:14:15;98579.66;;;19.97
15360;BMP280;7779;49.596;11.070;2022-09-01T01:16:46;98578.75;;;19.95
15360;BMP280;7779;49.596;11.070;2022-09-01T01:19:41;98581.22;;;19.92
15360;BMP280;7779;49.596;11.070;2022-09-01T01:25:47;98579.31;;;19.82
15360;BMP280;7779;49.596;11.070;2022-09-01T01:28:22;98584.28;;;19.79
15360;BMP280;7779;49.596;11.070;2022-09-01T01:31:16;98581.69;;;19.76
15360;BMP280;7779;49.596;11.070;2022-09-01T01:33:54;98582.53;;;19.76
15360;BMP280;7779;49.596;11.070;2022-09-01T01:36:31;98585.88;;;19.75
15360;BMP280;7779;49.596;11.070;2022-09-01T01:39:12;98583.38;;;19.77
15360;BMP280;7779;49.596;11.070;2022-09-01T01:41:42;98570.66;;;19.77
15360;BMP280;7779;49.596;11.070;2022-09-01T01:44:14;98582.53;;;19.76
15360;BMP280;7779;49.596;11.070;2022-09-01T01:46:46;98590.16;;;19.76
15360;BMP280;7779;49.596;11.070;2022-09-01T01:49:14;98584.22;;;19.76
15360;BMP280;7779;49.596;11.070;2022-09-01T01:51:51;98584.22;;;19.76
15360;BMP280;7779;49.596;11.070;2022-09-01T01:54:22;98579.06;;;19.73
15360;BMP280;7779;49.596;11.070;2022-09-01T01:56:49;98573.16;;;19.74
15360;BMP280;7779;49.596;11.070;2022-09-01T01:59:15;98583.28;;;19.72
15360;BMP280;7779;49.596;11.070;2022-09-01T02:01:44;98579.91;;;19.72
15360;BMP280;7779;49.596;11.070;2022-09-01T02:04:14;98576.41;;;19.68
15360;BMP280;7779;49.596;11.070;2022-09-01T02:06:43;98578.03;;;19.65
15360;BMP280;7779;49.596;11.070;2022-09-01T02:09:18;98574.53;;;19.61
15360;BMP280;7779;49.596;11.070;2022-09-01T02:11:44;98571.81;;;19.54
15360;BMP280;7779;49.596;11.070;2022-09-01T02:14:11;98577.63;;;19.50
15360;BMP280;7779;49.596;11.070;2022-09-01T02:16:39;98565.59;;;19.43
15360;BMP280;7779;49.596;11.070;2022-09-01T02:19:07;98568.88;;;19.39
15360;BMP280;7779;49.596;11.070;2022-09-01T02:21:37;98565.38;;;19.36
15360;BMP280;7779;49.596;11.070;2022-09-01T02:24:09;98567.03;;;19.32
15360;BMP280;7779;49.596;11.070;2022-09-01T02:26:43;98567.81;;;19.31
15360;BMP280;7779;49.596;11.070;2022-09-01T02:29:20;98566.03;;;19.27
15360;BMP280;7779;49.596;11.070;2022-09-01T02:31:51;98557.44;;;19.22
15360;BMP280;7779;49.596;11.070;2022-09-01T02:34:20;98562.41;;;19.19
15360;BMP280;7779;49.596;11.070;2022-09-01T02:36:52;98558.13;;;19.17
15360;BMP280;7779;49.596;11.070;2022-09-01T02:39:28;98550.41;;;19.13
15360;BMP280;7779;49.596;11.070;2022-09-01T02:41:55;98552.91;;;19.11
15360;BMP280;7779;49.596;11.070;2022-09-01T02:44:28;98558.72;;;19.09
15360;BMP280;7779;49.596;11.070;2022-09-01T02:46:57;98551.06;;;19.06
15360;BMP280;7779;49.596;11.070;2022-09-01T02:49:25;98554.34;;;19.03
15360;BMP280;7779;49.596;11.070;2022-09-01T02:51:55;98545.84;;;19.01
15360;BMP280;7779;49.596;11.070;2022-09-01T02:54:25;98552.50;;;18.98
15360;BMP280;7779;49.596;11.070;2022-09-01T02:56:52;98550.69;;;18.94
15360;BMP280;7779;49.596;11.070;2022-09-01T02:59:25;98546.34;;;18.90
15360;BMP280;7779;49.596;11.070;2022-09-01T03:01:53;98552.97;;;18.85
15360;BMP280;7779;49.596;11.070;2022-09-01T03:04:20;98546.09;;;18.81
15360;BMP280;7779;49.596;11.070;2022-09-01T03:06:47;98546.78;;;18.76
15360;BMP280;7779;49.596;11.070;2022-09-01T03:09:17;98545.84;;;18.72
15360;BMP280;7779;49.596;11.070;2022-09-01T03:11:48;98548.28;;;18.68
15360;BMP280;7779;49.596;11.070;2022-09-01T03:14:15;98546.44;;;18.64
15360;BMP280;7779;49.596;11.070;2022-09-01T03:16:42;98553.09;;;18.59
15360;BMP280;7779;49.596;11.070;2022-09-01T03:19:09;98546.97;;;18.52
15360;BMP280;7779;49.596;11.070;2022-09-01T03:21:40;98549.41;;;18.48
15360;BMP280;7779;49.596;11.070;2022-09-01T03:24:10;98544.13;;;18.42
15360;BMP280;7779;49.596;11.070;2022-09-01T03:26:41;98538.88;;;18.36
15360;BMP280;7779;49.596;11.070;2022-09-01T03:29:08;98541.19;;;18.29
15360;BMP280;7779;49.596;11.070;2022-09-01T03:31:36;98541.03;;;18.23
15360;BMP280;7779;49.596;11.070;2022-09-01T03:34:03;98543.34;;;18.15
15360;BMP280;7779;49.596;11.070;2022-09-01T03:36:34;98547.34;;;18.09
15360;BMP280;7779;49.596;11.070;2022-09-01T03:39:01;98552.22;;;18.03
15360;BMP280;7779;49.596;11.070;2022-09-01T03:41:29;98548.56;;;17.95
15360;BMP280;7779;49.596;11.070;2022-09-01T03:43:56;98547.59;;;17.90
15360;BMP280;7779;49.596;11.070;2022-09-01T03:46:28;98546.47;;;17.82
15360;BMP280;7779;49.596;11.070;2022-09-01T03:48:58;98557.28;;;17.77
15360;BMP280;7779;49.596;11.070;2022-09-01T03:51:28;98557.94;;;17.71
15360;BMP280;7779;49.596;11.070;2022-09-01T03:53:56;98556.13;;;17.67
15360;BMP280;7779;49.596;11.070;2022-09-01T03:56:26;98557.66;;;17.62
15360;BMP280;7779;49.596;11.070;2022-09-01T03:58:56;98552.50;;;17.60
15360;BMP280;7779;49.596;11.070;2022-09-01T04:01:28;98549.03;;;17.56
15360;BMP280;7779;49.596;11.070;2022-09-01T04:03:57;98546.25;;;17.50
15360;BMP280;7779;49.596;11.070;2022-09-01T04:06:26;98553.72;;;17.46
15360;BMP280;7779;49.596;11.070;2022-09-01T04:08:52;98549.38;;;17.42
15360;BMP280;7779;49.596;11.070;2022-09-01T04:11:28;98560.19;;;17.38
15360;BMP280;7779;49.596;11.070;2022-09-01T04:13:54;98555.84;;;17.34
15360;BMP280;7779;49.596;11.070;2022-09-01T04:16:27;98555.78;;;17.31
15360;BMP280;7779;49.596;11.070;2022-09-01T04:19:14;98553.00;;;17.25
15360;BMP280;7779;49.596;11.070;2022-09-01T04:21:47;98547.75;;;17.19
15360;BMP280;7779;49.596;11.070;2022-09-01T04:24:16;98562.72;;;17.13
15360;BMP280;7779;49.596;11.070;2022-09-01T04:26:45;98554.88;;;17.07
15360;BMP280;7779;49.596;11.070;2022-09-01T04:29:15;98560.66;;;17.03
15360;BMP280;7779;49.596;11.070;2022-09-01T04:31:44;98554.56;;;16.98
15360;BMP280;7779;49.596;11.070;2022-09-01T04:34:13;98551.84;;;16.92
15360;BMP280;7779;49.596;11.070;2022-09-01T04:36:43;98546.63;;;16.88
15360;BMP280;7779;49.596;11.070;2022-09-01T04:39:10;98548.13;;;16.83
15360;BMP280;7779;49.596;11.070;2022-09-01T04:41:42;98559.03;;;16.81
15360;BMP280;7779;49.596;11.070;2022-09-01T04:44:12;98558.84;;;16.76
15360;BMP280;7779;49.596;11.070;2022-09-01T04:46:42;98562.94;;;16.73
15360;BMP280;7779;49.596;11.070;2022-09-01T04:49:13;98578.03;;;16.70
15360;BMP280;7779;49.596;11.070;2022-09-01T04:51:48;98577.91;;;16.67
15360;BMP280;7779;49.596;11.070;2022-09-01T04:54:15;98572.72;;;16.64
15360;BMP280;7779;49.596;11.070;2022-09-01T04:56:47;98570.13;;;16.62
15360;BMP280;7779;49.596;11.070;2022-09-01T04:59:22;98570.13;;;16.62
15360;BMP280;7779;49.596;11.070;2022-09-01T05:01:55;98571.75;;;16.60
15360;BMP280;7779;49.596;11.070;2022-09-01T05:04:27;98570.13;;;16.62
15360;BMP280;7779;49.596;11.070;2022-09-01T05:06:57;98572.72;;;16.64
15360;BMP280;7779;49.596;11.070;2022-09-01T05:09:34;98576.16;;;16.66
15360;BMP280;7779;49.596;11.070;2022-09-01T05:12:33;98564.34;;;16.65
15360;BMP280;7779;49.596;11.070;2022-09-01T05:15:00;98565.31;;;16.68
15360;BMP280;7779;49.596;11.070;2022-09-01T05:17:33;98567.94;;;16.71
15360;BMP280;7779;49.596;11.070;2022-09-01T05:20:04;98571.44;;;16.75
15360;BMP280;7779;49.596;11.070;2022-09-01T05:22:31;98570.69;;;16.77
15360;BMP280;7779;49.596;11.070;2022-09-01T05:25:02;98580.97;;;16.81
15360;BMP280;7779;49.596;11.070;2022-09-01T05:27:42;98579.41;;;16.85
15360;BMP280;7779;49.596;11.070;2022-09-01T05:30:16;98580.38;;;16.88
15360;BMP280;7779;49.596;11.070;2022-09-01T05:32:43;98575.44;;;16.91
15360;BMP280;7779;49.596;11.070;2022-09-01T05:35:12;98576.44;;;16.96
15360;BMP280;7779;49.596;11.070;2022-09-01T05:37:38;98584.25;;;17.02
15360;BMP280;7779;49.596;11.070;2022-09-01T05:40:09;98574.34;;;17.08
15360;BMP280;7779;49.596;11.070;2022-09-01T05:42:42;98583.88;;;17.15
15360;BMP280;7779;49.596;11.070;2022-09-01T05:45:09;98578.28;;;17.23
15360;BMP280;7779;49.596;11.070;2022-09-01T05:47:38;98583.63;;;17.31
15360;BMP280;7779;49.596;11.070;2022-09-01T05:50:06;98587.25;;;17.39
15360;BMP280;7779;49.596;11.070;2022-09-01T05:52:38;98586.78;;;17.50
15360;BMP280;7779;49.596;11.070;2022-09-01T05:55:05;98587.25;;;17.63
15360;BMP280;7779;49.596;11.070;2022-09-01T05:57:35;98589.44;;;17.79
15360;BMP280;7779;49.596;11.070;2022-09-01T06:00:07;98581.69;;;17.99
15360;BMP280;7779;49.596;11.070;2022-09-01T06:02:40;98583.13;;;18.18
15360;BMP280;7779;49.596;11.070;2022-09-01T06:05:09;98585.38;;;18.37
15360;BMP280;7779;49.596;11.070;2022-09-01T06:07:36;98589.38;;;18.56
15360;BMP280;7779;49.596;11.070;2022-09-01T06:10:05;98587.34;;;18.74
15360;BMP280;7779;49.596;11.070;2022-09-01T06:12:31;98581.94;;;18.91
15360;BMP280;7779;49.596;11.070;2022-09-01T06:14:58;98581.63;;;19.10
15360;BMP280;7779;49.596;11.070;2022-09-01T06:17:27;98585.56;;;19.30
15360;BMP280;7779;49.596;11.070;2022-09-01T06:19:57;98584.34;;;19.48
15360;BMP280;7779;49.596;11.070;2022-09-01T06:22:26;98585.69;;;19.68
15360;BMP280;7779;49.596;11.070;2022-09-01T06:24:53;98578.59;;;19.87
15360;BMP280;7779;49.596;11.070;2022-09-01T06:27:20;98574.78;;;20.05
15360;BMP280;7779;49.596;11.070;2022-09-01T06:29:47;98575.19;;;20.23
15360;BMP280;7779;49.596;11.070;2022-09-01T06:32:16;98581.59;;;20.43
15360;BMP280;7779;49.596;11.070;2022-09-01T06:34:43;98576.84;;;20.59
15360;BMP280;7779;49.596;11.070;2022-09-01T06:37:16;98582.31;;;20.76
15360;BMP280;7779;49.596;11.070;2022-09-01T06:39:48;98569.84;;;20.87
15360;BMP280;7779;49.596;11.070;2022-09-01T06:42:15;98569.22;;;20.99
15360;BMP280;7779;49.596;11.070;2022-09-01T06:44:50;98574.56;;;21.11
15360;BMP280;7779;49.596;11.070;2022-09-01T06:47:18;98573.06;;;21.23
15360;BMP280;7779;49.596;11.070;2022-09-01T06:49:44;98567.38;;;21.36
15360;BMP280;7779;49.596;11.070;2022-09-01T06:52:16;98579.56;;;21.50
15360;BMP280;7779;49.596;11.070;2022-09-01T06:54:42;98578.06;;;21.62
15360;BMP280;7779;49.596;11.070;2022-09-01T06:57:09;98576.56;;;21.75
15360;BMP280;7779;49.596;11.070;2022-09-01T06:59:34;98576.75;;;21.85
15360;BMP280;7779;49.596;11.070;2022-09-01T07:02:02;98570.06;;;21.93
15360;BMP280;7779;49.596;11.070;2022-09-01T07:04:54;98576.16;;;22.01
15360;BMP280;7779;49.596;11.070;2022-09-01T07:07:20;98577.94;;;22.06
15360;BMP280;7779;49.596;11.070;2022-09-01T07:10:05;98570.38;;;22.12
15360;BMP280;7779;49.596;11.070;2022-09-01T07:12:40;98574.78;;;22.21
15360;BMP280;7779;49.596;11.070;2022-09-01T07:15:12;98579.16;;;22.28
15360;BMP280;7779;49.596;11.070;2022-09-01T07:17:45;98577.56;;;22.35
15360;BMP280;7779;49.596;11.070;2022-09-01T07:20:14;98581.91;;;22.42
15360;BMP280;7779;49.596;11.070;2022-09-01T07:22:41;98584.53;;;22.48
15360;BMP280;7779;49.596;11.070;2022-09-01T07:25:08;98583.75;;;22.54
15360;BMP280;7779;49.596;11.070;2022-09-01T07:27:57;98585.50;;;22.56
15360;BMP280;7779;49.596;11.070;2022-09-01T07:30:25;98586.41;;;22.61
15360;BMP280;7779;49.596;11.070;2022-09-01T07:32:51;98589.06;;;22.67
15360;BMP280;7779;49.596;11.070;2022-09-01T07:35:20;98588.25;;;22.71
15360;BMP280;7779;49.596;11.070;2022-09-01T07:37:48;98590.81;;;22.74
15360;BMP280;7779;49.596;11.070;2022-09-01T07:40:18;98587.50;;;22.78
15360;BMP280;7779;49.596;11.070;2022-09-01T07:42:59;98587.50;;;22.79
15360;BMP280;7779;49.596;11.070;2022-09-01T07:45:45;98594.38;;;22.83
15360;BMP280;7779;49.596;11.070;2022-09-01T07:48:19;98593.56;;;22.86
15360;BMP280;7779;49.596;11.070;2022-09-01T07:50:52;98597.06;;;22.91
15360;BMP280;7779;49.596;11.070;2022-09-01T07:53:24;98586.06;;;22.98
15360;BMP280;7779;49.596;11.070;2022-09-01T07:55:53;98588.69;;;23.04
15360;BMP280;7779;49.596;11.070;2022-09-01T07:58:24;98595.53;;;23.08
15360;BMP280;7779;49.596;11.070;2022-09-01T08:00:55;98594.75;;;23.13
15360;BMP280;7779;49.596;11.070;2022-09-01T08:03:24;98584.59;;;23.19
15360;BMP280;7779;49.596;11.070;2022-09-01T08:05:51;98584.69;;;23.25
15360;BMP280;7779;49.596;11.070;2022-09-01T08:08:23;98591.53;;;23.29
15360;BMP280;7779;49.596;11.070;2022-09-01T08:10:49;98587.31;;;23.32
15360;BMP280;7779;49.596;11.070;2022-09-01T08:13:18;98590.72;;;23.33
15360;BMP280;7779;49.596;11.070;2022-09-01T08:15:44;98586.44;;;23.33
15360;BMP280;7779;49.596;11.070;2022-09-01T08:18:12;98588.22;;;23.37
15360;BMP280;7779;49.596;11.070;2022-09-01T08:20:40;98595.06;;;23.41
15360;BMP280;7779;49.596;11.070;2022-09-01T08:23:28;98586.53;;;23.42
15360;BMP280;7779;49.596;11.070;2022-09-01T08:25:54;98600.22;;;23.46
15360;BMP280;7779;49.596;11.070;2022-09-01T08:28:20;98595.13;;;23.47
15360;BMP280;7779;49.596;11.070;2022-09-01T08:30:46;98592.59;;;23.50
15360;BMP280;7779;49.596;11.070;2022-09-01T08:33:16;98600.31;;;23.54
15360;BMP280;7779;49.596;11.070;2022-09-01T08:35:47;98585.94;;;23.61
15360;BMP280;7779;49.596;11.070;2022-09-01T08:38:14;98586.81;;;23.67
15360;BMP280;7779;49.596;11.070;2022-09-01T08:40:50;98593.72;;;23.76
15360;BMP280;7779;49.596;11.070;2022-09-01T08:43:52;98590.38;;;23.83
15360;BMP280;7779;49.596;11.070;2022-09-01T08:46:32;98595.56;;;23.92
15360;BMP280;7779;49.596;11.070;2022-09-01T08:49:10;98592.22;;;24.00
15360;BMP280;7779;49.596;11.070;2022-09-01T08:52:32;98592.28;;;24.09
15360;BMP280;7779;49.596;11.070;2022-09-01T08:55:21;98585.53;;;24.18
15360;BMP280;7779;49.596;11.070;2022-09-01T08:57:55;98601.81;;;24.26
15360;BMP280;7779;49.596;11.070;2022-09-01T09:00:33;98595.06;;;24.37
15360;BMP280;7779;49.596;11.070;2022-09-01T09:06:21;98592.66;;;24.58
15360;BMP280;7779;49.596;11.070;2022-09-01T09:09:06;98596.97;;;24.68
15360;BMP280;7779;49.596;11.070;2022-09-01T09:12:08;98600.44;;;24.78
15360;BMP280;7779;49.596;11.070;2022-09-01T09:17:56;98596.31;;;25.06
15360;BMP280;7779;49.596;11.070;2022-09-01T09:20:28;98592.94;;;25.18
15360;BMP280;7779;49.596;11.070;2022-09-01T09:22:54;98589.53;;;25.31
15360;BMP280;7779;49.596;11.070;2022-09-01T09:25:21;98589.59;;;25.45
15360;BMP280;7779;49.596;11.070;2022-09-01T09:27:50;98582.78;;;25.61
15360;BMP280;7779;49.596;11.070;2022-09-01T09:30:27;98587.09;;;25.80
15360;BMP280;7779;49.596;11.070;2022-09-01T09:33:06;98575.94;;;25.96
15360;BMP280;7779;49.596;11.070;2022-09-01T09:35:44;98584.53;;;26.13
15360;BMP280;7779;49.596;11.070;2022-09-01T09:41:19;98574.19;;;26.54
15360;BMP280;7779;49.596;11.070;2022-09-01T09:44:11;98578.44;;;26.67
15360;BMP280;7779;49.596;11.070;2022-09-01T09:46:40;98574.09;;;26.81
15360;BMP280;7779;49.596;11.070;2022-09-01T09:49:27;98574.97;;;26.92
15360;BMP280;7779;49.596;11.070;2022-09-01T09:54:56;98575.69;;;27.14
15360;BMP280;7779;49.596;11.070;2022-09-01T09:57:22;98568.75;;;27.31
15360;BMP280;7779;49.596;11.070;2022-09-01T10:02:39;98570.31;;;27.59
15360;BMP280;7779;49.596;11.070;2022-09-01T10:10:53;98555.50;;;27.85
15360;BMP280;7779;49.596;11.070;2022-09-01T10:13:23;98557.09;;;27.97
15360;BMP280;7779;49.596;11.070;2022-09-01T10:15:53;98549.31;;;28.09
15360;BMP280;7779;49.596;11.070;2022-09-01T10:18:30;98548.31;;;28.25
15360;BMP280;7779;49.596;11.070;2022-09-01T10:21:03;98546.41;;;28.42
15360;BMP280;7779;49.596;11.070;2022-09-01T10:23:35;98534.16;;;28.59
15360;BMP280;7779;49.596;11.070;2022-09-01T10:26:14;98538.28;;;28.76
15360;BMP280;7779;49.596;11.070;2022-09-01T10:29:25;98541.69;;;28.79
15360;BMP280;7779;49.596;11.070;2022-09-01T10:31:53;98538.31;;;28.73
15360;BMP280;7779;49.596;11.070;2022-09-01T10:34:21;98533.22;;;28.70
15360;BMP280;7779;49.596;11.070;2022-09-01T10:36:49;98535.75;;;28.71
15360;BMP280;7779;49.596;11.070;2022-09-01T10:39:17;98540.88;;;28.76
15360;BMP280;7779;49.596;11.070;2022-09-01T10:41:50;98547.69;;;28.81
15360;BMP280;7779;49.596;11.070;2022-09-01T10:44:35;98535.63;;;28.83
15360;BMP280;7779;49.596;11.070;2022-09-01T10:47:38;98531.28;;;28.85
15360;BMP280;7779;49.596;11.070;2022-09-01T10:50:31;98532.09;;;28.89
15360;BMP280;7779;49.596;11.070;2022-09-01T10:53:05;98522.63;;;28.89
15360;BMP280;7779;49.596;11.070;2022-09-01T10:55:42;98522.63;;;28.89
15360;BMP280;7779;49.596;11.070;2022-09-01T10:58:23;98535.53;;;28.89
15360;BMP280;7779;49.596;11.070;2022-09-01T11:00:52;98531.25;;;28.88
15360;BMP280;7779;49.596;11.070;2022-09-01T11:06:03;98517.47;;;28.91
15360;BMP280;7779;49.596;11.070;2022-09-01T11:11:01;98538.88;;;28.97
15360;BMP280;7779;49.596;11.070;2022-09-01T11:13:42;98531.94;;;29.02
15360;BMP280;7779;49.596;11.070;2022-09-01T11:16:28;98530.19;;;29.04
15360;BMP280;7779;49.596;11.070;2022-09-01T11:19:22;98525.88;;;29.05
15360;BMP280;7779;49.596;11.070;2022-09-01T11:27:10;98531.28;;;28.87
15360;BMP280;7779;49.596;11.070;2022-09-01T11:29:59;98532.28;;;28.75
15360;BMP280;7779;49.596;11.070;2022-09-01T11:32:34;98534.16;;;28.63
15360;BMP280;7779;49.596;11.070;2022-09-01T11:35:25;98529.97;;;28.50
15360;BMP280;7779;49.596;11.070;2022-09-01T11:38:01;98524.94;;;28.40
15360;BMP280;7779;49.596;11.070;2022-09-01T11:40:31;98525.03;;;28.31
15360;BMP280;7779;49.596;11.070;2022-09-01T11:43:03;98535.41;;;28.25
15360;BMP280;7779;49.596;11.070;2022-09-01T11:45:31;98531.09;;;28.27
15360;BMP280;7779;49.596;11.070;2022-09-01T11:48:06;98531.03;;;28.30
15360;BMP280;7779;49.596;11.070;2022-09-01T11:50:37;98525.88;;;28.33
15360;BMP280;7779;49.596;11.070;2022-09-01T11:53:13;98513.81;;;28.33
15360;BMP280;7779;49.596;11.070;2022-09-01T11:55:50;98524.09;;;28.38
15360;BMP280;7779;49.596;11.070;2022-09-01T12:00:53;98518.84;;;28.47
15360;BMP280;7779;49.596;11.070;2022-09-01T12:03:27;98519.66;;;28.52
15360;BMP280;7779;49.596;11.070;2022-09-01T12:06:04;98514.44;;;28.56
15360;BMP280;7779;49.596;11.070;2022-09-01T12:08:38;98523.00;;;28.63
15360;BMP280;7779;49.596;11.070;2022-09-01T12:11:07;98521.22;;;28.66
15360;BMP280;7779;49.596;11.070;2022-09-01T12:13:34;98521.22;;;28.66
15360;BMP280;7779;49.596;11.070;2022-09-01T12:16:05;98515.19;;;28.69
15360;BMP280;7779;49.596;11.070;2022-09-01T12:18:45;98516.03;;;28.69
15360;BMP280;7779;49.596;11.070;2022-09-01T12:21:28;98513.44;;;28.71
15360;BMP280;7779;49.596;11.070;2022-09-01T12:24:28;98504.88;;;28.69
15360;BMP280;7779;49.596;11.070;2022-09-01T12:26:55;98503.16;;;28.68
15360;BMP280;7779;49.596;11.070;2022-09-01T12:29:24;98513.44;;;28.71
15360;BMP280;7779;49.596;11.070;2022-09-01T12:31:52;98502.28;;;28.70
15360;BMP280;7779;49.596;11.070;2022-09-01T12:34:39;98501.38;;;28.72
15360;BMP280;7779;49.596;11.070;2022-09-01T12:39:44;98497.84;;;28.79
15360;BMP280;7779;49.596;11.070;2022-09-01T12:42:30;98495.19;;;28.84
15360;BMP280;7779;49.596;11.070;2022-09-01T12:45:08;98494.31;;;28.86
15360;BMP280;7779;49.596;11.070;2022-09-01T12:55:24;98487.41;;;28.88
15360;BMP280;7779;49.596;11.070;2022-09-01T12:57:55;98497.66;;;28.91
15360;BMP280;7779;49.596;11.070;2022-09-01T13:00:26;98486.47;;;28.94
15360;BMP280;7779;49.596;11.070;2022-09-01T13:05:42;98484.84;;;28.88
15360;BMP280;7779;49.596;11.070;2022-09-01T13:08:16;98486.63;;;28.83
15360;BMP280;7779;49.596;11.070;2022-09-01T13:13:30;98482.59;;;28.63
15360;BMP280;7779;49.596;11.070;2022-09-01T13:15:58;98481.00;;;28.52
15360;BMP280;7779;49.596;11.070;2022-09-01T13:18:28;98490.59;;;28.38
15360;BMP280;7779;49.596;11.070;2022-09-01T13:20:56;98483.06;;;28.20
15360;BMP280;7779;49.596;11.070;2022-09-01T13:23:22;98480.69;;;28.02
15360;BMP280;7779;49.596;11.070;2022-09-01T13:25:49;98485.97;;;27.86
15360;BMP280;7779;49.596;11.070;2022-09-01T13:28:17;98483.53;;;27.70
15360;BMP280;7779;49.596;11.070;2022-09-01T13:30:54;98480.22;;;27.56
15360;BMP280;7779;49.596;11.070;2022-09-01T13:33:21;98485.47;;;27.41
15360;BMP280;7779;49.596;11.070;2022-09-01T13:35:49;98474.41;;;27.29
15360;BMP280;7779;49.596;11.070;2022-09-01T13:38:15;98477.91;;;27.20
15360;BMP280;7779;49.596;11.070;2022-09-01T13:40:43;98468.53;;;27.13
15360;BMP280;7779;49.596;11.070;2022-09-01T13:43:12;98471.13;;;27.11
15360;BMP280;7779;49.596;11.070;2022-09-01T13:45:39;98470.25;;;27.10
15360;BMP280;7779;49.596;11.070;2022-09-01T13:48:07;98470.28;;;27.09
15360;BMP280;7779;49.596;11.070;2022-09-01T13:50:34;98468.59;;;27.05
15360;BMP280;7779;49.596;11.070;2022-09-01T13:53:01;98460.00;;;27.06
15360;BMP280;7779;49.596;11.070;2022-09-01T13:55:31;98458.25;;;27.08
15360;BMP280;7779;49.596;11.070;2022-09-01T13:57:57;98464.22;;;27.12
15360;BMP280;7779;49.596;11.070;2022-09-01T14:00:29;98454.72;;;27.23
15360;BMP280;7779;49.596;11.070;2022-09-01T14:03:04;98452.91;;;27.34
15360;BMP280;7779;49.596;11.070;2022-09-01T14:05:37;98453.72;;;27.47
15360;BMP280;7779;49.596;11.070;2022-09-01T14:08:05;98455.31;;;27.58
15360;BMP280;7779;49.596;11.070;2022-09-01T14:10:32;98457.81;;;27.68
15360;BMP280;7779;49.596;11.070;2022-09-01T14:13:02;98456.81;;;27.81
15360;BMP280;7779;49.596;11.070;2022-09-01T14:15:28;98448.16;;;27.91
15360;BMP280;7779;49.596;11.070;2022-09-01T14:17:55;98450.66;;;27.98
15360;BMP280;7779;49.596;11.070;2022-09-01T14:20:26;98450.59;;;28.04
15360;BMP280;7779;49.596;11.070;2022-09-01T14:22:53;98449.75;;;28.07
15360;BMP280;7779;49.596;11.070;2022-09-01T14:25:21;98453.19;;;28.03
15360;BMP280;7779;49.596;11.070;2022-09-01T14:27:48;98454.06;;;28.00
15360;BMP280;7779;49.596;11.070;2022-09-01T14:30:22;98440.38;;;27.94
15360;BMP280;7779;49.596;11.070;2022-09-01T14:32:49;98458.47;;;27.87
15360;BMP280;7779;49.596;11.070;2022-09-01T14:35:19;98448.28;;;27.78
15360;BMP280;7779;49.596;11.070;2022-09-01T14:37:45;98444.94;;;27.67
15360;BMP280;7779;49.596;11.070;2022-09-01T14:40:14;98447.66;;;27.55
15360;BMP280;7779;49.596;11.070;2022-09-01T14:42:42;98445.16;;;27.40
15360;BMP280;7779;49.596;11.070;2022-09-01T14:45:24;98442.69;;;27.25
15360;BMP280;7779;49.596;11.070;2022-09-01T14:47:54;98441.97;;;27.12
15360;BMP280;7779;49.596;11.070;2022-09-01T14:50:22;98437.75;;;26.99
15360;BMP280;7779;49.596;11.070;2022-09-01T14:52:53;98440.41;;;26.88
15360;BMP280;7779;49.596;11.070;2022-09-01T14:55:22;98443.84;;;26.78
15360;BMP280;7779;49.596;11.070;2022-09-01T14:57:49;98437.91;;;26.69
15360;BMP280;7779;49.596;11.070;2022-09-01T15:00:18;98437.94;;;26.63
15360;BMP280;7779;49.596;11.070;2022-09-01T15:02:45;98443.09;;;26.59
15360;BMP280;7779;49.596;11.070;2022-09-01T15:05:12;98435.44;;;26.54
15360;BMP280;7779;49.596;11.070;2022-09-01T15:07:39;98424.31;;;26.49
15360;BMP280;7779;49.596;11.070;2022-09-01T15:10:08;98429.44;;;26.49
15360;BMP280;7779;49.596;11.070;2022-09-01T15:12:35;98438.88;;;26.49
15360;BMP280;7779;49.596;11.070;2022-09-01T15:15:01;98429.44;;;26.49
15360;BMP280;7779;49.596;11.070;2022-09-01T15:17:28;98431.16;;;26.50
15360;BMP280;7779;49.596;11.070;2022-09-01T15:19:54;98425.16;;;26.51
15360;BMP280;7779;49.596;11.070;2022-09-01T15:22:20;98433.69;;;26.55
15360;BMP280;7779;49.596;11.070;2022-09-01T15:24:46;98434.53;;;26.55
15360;BMP280;7779;49.596;11.070;2022-09-01T15:27:12;98429.41;;;26.55
15360;BMP280;7779;49.596;11.070;2022-09-01T15:29:38;98426.03;;;26.50